Time;durP1;ratioP1;P1;durP2;ratioP2;P2;SDS_P1;SDS_P2;PMS_P1;PMS_P2;Temp;Humidity;BMP_temperature;BMP_pressure;BME280_temperature;BME280_humidity;BME280_pressure;Samples;Min_cycle;Max_cycle;Signal;HPM_P1;HPM_P2
2021/12/21 00:03:21;;;;;;;;;;;;;;;20.80;29.11;96267.50;10365798;28;1799;-48
2021/12/21 00:08:21;;;;;;;;;;;;;;;20.77;28.97;96268.81;10366278;28;1970;-51
2021/12/21 00:28:37;;;;;;;;;;;;;;;20.64;29.17;96258.03;10365267;28;1861;-45
2021/12/21 00:33:40;;;;;;;;;;;;;;;20.61;29.02;96267.22;10359245;28;1991;-46
2021/12/21 00:38:41;;;;;;;;;;;;;;;20.59;29.36;96260.63;10372166;28;1995;-46
2021/12/21 00:43:41;;;;;;;;;;;;;;;20.55;29.26;96262.19;10363880;28;1823;-51
2021/12/21 00:48:49;;;;;;;;;;;;;;;20.53;29.29;96249.31;10382586;28;1867;-46
2021/12/21 00:53:50;;;;;;;;;;;;;;;20.49;29.12;96247.44;10361381;28;1862;-49
2021/12/21 00:58:50;;;;;;;;;;;;;;;20.46;29.31;96232.19;10367513;28;2260;-47
2021/12/21 01:03:53;;;;;;;;;;;;;;;20.44;29.32;96235.09;10376297;28;1876;-49
2021/12/21 01:14:24;;;;;;;;;;;;;;;20.39;29.24;96221.09;10364671;28;1806;-48
2021/12/21 01:19:29;;;;;;;;;;;;;;;20.34;29.40;96221.09;10361017;28;1922;-48
2021/12/21 01:29:55;;;;;;;;;;;;;;;20.29;29.06;96219.25;10354304;28;1820;-46
2021/12/21 01:35:06;;;;;;;;;;;;;;;20.26;29.12;96210.03;10359557;28;1821;-50
2021/12/21 01:50:45;;;;;;;;;;;;;;;20.19;29.03;96196.34;10401044;23;3627;-58
2021/12/21 01:55:45;;;;;;;;;;;;;;;20.17;29.09;96200.25;10416032;28;1906;-58
2021/12/21 02:00:46;;;;;;;;;;;;;;;20.16;28.77;96196.00;10407748;28;1833;-56
2021/12/21 02:05:46;;;;;;;;;;;;;;;20.15;28.86;96189.94;10408218;28;1790;-57
2021/12/21 02:10:46;;;;;;;;;;;;;;;20.15;28.71;96173.38;10409336;28;1962;-58
2021/12/21 02:15:47;;;;;;;;;;;;;;;20.15;28.67;96165.50;10395224;28;2388;-58
2021/12/21 02:20:56;;;;;;;;;;;;;;;20.15;28.63;96162.88;10415131;28;2038;-58
2021/12/21 02:30:57;;;;;;;;;;;;;;;20.17;28.43;96155.50;10402338;28;2009;-57
2021/12/21 02:35:58;;;;;;;;;;;;;;;20.16;28.41;96153.91;10408045;28;1986;-58
2021/12/21 02:40:58;;;;;;;;;;;;;;;20.17;28.55;96150.22;10411797;28;2002;-58
2021/12/21 02:45:59;;;;;;;;;;;;;;;20.18;28.34;96147.31;10409584;28;1935;-58
2021/12/21 02:51:00;;;;;;;;;;;;;;;20.18;28.18;96141.25;10410325;28;1939;-58
2021/12/21 02:56:00;;;;;;;;;;;;;;;20.19;28.20;96137.59;10408449;28;2068;-58
2021/12/21 03:01:01;;;;;;;;;;;;;;;20.21;28.15;96143.41;10408494;28;2065;-58
2021/12/21 03:06:03;;;;;;;;;;;;;;;20.22;28.03;96145.78;10422929;28;1872;-57
2021/12/21 03:11:19;;;;;;;;;;;;;;;20.22;27.97;96147.63;10412747;28;1957;-56
2021/12/21 03:16:20;;;;;;;;;;;;;;;20.23;28.05;96147.38;10413416;28;1935;-57
2021/12/21 03:21:22;;;;;;;;;;;;;;;20.23;28.10;96144.75;10405612;28;1963;-57
2021/12/21 03:26:25;;;;;;;;;;;;;;;20.25;27.80;96139.22;10420113;28;2045;-56
2021/12/21 03:31:27;;;;;;;;;;;;;;;20.27;28.05;96142.38;10422031;28;1878;-56
2021/12/21 03:36:28;;;;;;;;;;;;;;;20.26;27.83;96138.16;10427300;28;2087;-57
2021/12/21 03:41:28;;;;;;;;;;;;;;;20.25;27.80;96141.84;10409381;28;1977;-58
2021/12/21 03:46:31;;;;;;;;;;;;;;;20.27;27.89;96134.47;10414049;28;1904;-58
2021/12/21 03:51:31;;;;;;;;;;;;;;;20.27;27.77;96129.22;10401769;28;2005;-57
2021/12/21 04:01:32;;;;;;;;;;;;;;;20.29;27.52;96137.63;10407034;28;1951;-56
2021/12/21 04:06:32;;;;;;;;;;;;;;;20.26;27.76;96122.34;10422342;28;1919;-58
2021/12/21 04:11:33;;;;;;;;;;;;;;;20.30;27.71;96118.13;10408979;28;1991;-58
2021/12/21 04:16:33;;;;;;;;;;;;;;;20.30;27.54;96118.13;10404488;28;2031;-58
2021/12/21 04:21:34;;;;;;;;;;;;;;;20.30;27.72;96118.13;10395674;28;2047;-58
2021/12/21 04:26:34;;;;;;;;;;;;;;;20.30;27.59;96126.03;10412113;28;1939;-58
2021/12/21 04:31:35;;;;;;;;;;;;;;;20.32;27.49;96120.53;10405034;28;1968;-58
2021/12/21 04:36:35;;;;;;;;;;;;;;;20.32;27.49;96126.56;10410642;28;1910;-58
2021/12/21 04:41:35;;;;;;;;;;;;;;;20.32;27.50;96126.56;10405099;28;1973;-57
2021/12/21 04:46:36;;;;;;;;;;;;;;;20.36;27.45;96127.63;10400349;28;2088;-57
2021/12/21 04:51:37;;;;;;;;;;;;;;;20.39;27.61;96126.31;10402142;28;1984;-56
2021/12/21 04:56:38;;;;;;;;;;;;;;;20.41;27.47;96135.53;10404606;28;2058;-58
2021/12/21 05:01:38;;;;;;;;;;;;;;;20.43;27.31;96125.53;10405141;28;1936;-57
2021/12/21 05:06:39;;;;;;;;;;;;;;;20.45;27.35;96131.31;10419836;28;1880;-55
2021/12/21 05:11:42;;;;;;;;;;;;;;;20.47;27.32;96121.31;10406551;28;2071;-57
2021/12/21 05:16:43;;;;;;;;;;;;;;;20.49;27.42;96127.09;10414475;28;2040;-57
2021/12/21 05:21:44;;;;;;;;;;;;;;;20.52;27.17;96131.88;10408325;28;1973;-57
2021/12/21 05:26:45;;;;;;;;;;;;;;;20.51;27.24;96135.53;10414476;28;2024;-58
2021/12/21 05:31:45;;;;;;;;;;;;;;;20.54;27.03;96127.13;10392953;28;1984;-56
2021/12/21 05:36:45;;;;;;;;;;;;;;;20.54;27.19;96129.75;10411262;28;1998;-58
2021/12/21 05:41:50;;;;;;;;;;;;;;;20.57;27.13;96137.13;10405893;28;1981;-58
2021/12/21 05:46:51;;;;;;;;;;;;;;;20.58;27.26;96143.19;10417347;28;1937;-53
2021/12/21 05:51:52;;;;;;;;;;;;;;;20.57;27.06;96142.38;10399653;28;1965;-55
2021/12/21 05:56:53;;;;;;;;;;;;;;;20.60;27.11;96144.50;10413616;28;1973;-56
2021/12/21 06:01:54;;;;;;;;;;;;;;;20.62;26.92;96141.59;10401789;28;1911;-57
2021/12/21 06:06:54;;;;;;;;;;;;;;;20.62;26.98;96145.03;10417770;28;2200;-56
2021/12/21 06:27:29;;;;;;;;;;;;;;;20.63;26.98;96153.72;10408740;28;2092;-55
2021/12/21 06:32:30;;;;;;;;;;;;;;;20.65;26.75;96147.13;10396222;28;1976;-54
2021/12/21 06:37:30;;;;;;;;;;;;;;;20.66;26.75;96151.34;10417143;28;1994;-56
2021/12/21 06:42:31;;;;;;;;;;;;;;;20.65;26.73;96157.66;10401236;28;1946;-56
2021/12/21 06:52:50;;;;;;;;;;;;;;;20.67;26.81;96150.28;10395678;28;2295;-57
2021/12/21 06:57:51;;;;;;;;;;;;;;;20.67;26.61;96154.78;10383857;28;2318;-55
2021/12/21 07:02:51;;;;;;;;;;;;;;;20.70;26.82;96160.28;10407214;28;1941;-56
2021/12/21 07:07:52;;;;;;;;;;;;;;;20.71;26.52;96155.81;10427009;28;1914;-56
2021/12/21 07:23:03;;;;;;;;;;;;;;;20.70;26.60;96152.41;10403363;28;2003;-57
2021/12/21 07:28:04;;;;;;;;;;;;;;;20.71;26.50;96151.31;10411034;28;1991;-53
2021/12/21 07:33:04;;;;;;;;;;;;;;;20.71;26.18;96153.97;10397140;28;1922;-57
2021/12/21 07:38:04;;;;;;;;;;;;;;;20.73;26.57;96154.47;10407000;28;1977;-55
2021/12/21 07:43:05;;;;;;;;;;;;;;;20.74;26.66;96155.28;10390344;28;1928;-56
2021/12/21 07:48:06;;;;;;;;;;;;;;;20.77;26.57;96154.75;10392510;28;2212;-57
2021/12/21 07:53:06;;;;;;;;;;;;;;;20.76;26.52;96143.44;10398124;28;1868;-57
2021/12/21 07:58:07;;;;;;;;;;;;;;;20.76;26.57;96142.63;10399863;23;2308;-71
2021/12/21 08:03:08;;;;;;;;;;;;;;;20.74;26.81;96147.38;10402552;28;2131;-71
2021/12/21 08:08:14;;;;;;;;;;;;;;;20.77;26.86;96145.00;10368270;28;2189;-71
2021/12/21 08:13:14;;;;;;;;;;;;;;;20.76;26.81;96138.16;10404673;28;1893;-71
2021/12/21 08:18:15;;;;;;;;;;;;;;;20.77;26.72;96144.22;10408661;28;1961;-71
2021/12/21 08:23:15;;;;;;;;;;;;;;;20.79;26.82;96137.63;10417128;28;2412;-72
2021/12/21 08:28:16;;;;;;;;;;;;;;;20.79;26.86;96136.84;10409503;28;2099;-73
2021/12/21 08:33:16;;;;;;;;;;;;;;;20.85;27.46;96147.13;10380798;28;1879;-72
2021/12/21 08:38:18;;;;;;;;;;;;;;;20.86;27.31;96156.59;10401931;28;2234;-72
2021/12/21 08:43:20;;;;;;;;;;;;;;;20.87;27.16;96160.81;10379644;28;1835;-72
2021/12/21 08:48:20;;;;;;;;;;;;;;;20.88;27.40;96167.66;10401333;28;1865;-70
2021/12/21 08:53:21;;;;;;;;;;;;;;;20.86;27.46;96161.06;10395986;28;2200;-72
2021/12/21 08:58:22;;;;;;;;;;;;;;;20.90;27.41;96165.53;10402116;28;2201;-69
2021/12/21 09:03:23;;;;;;;;;;;;;;;20.93;27.28;96153.69;10407983;28;1860;-72
2021/12/21 09:08:23;;;;;;;;;;;;;;;20.96;27.42;96156.56;10397149;28;1881;-75
2021/12/21 09:13:24;;;;;;;;;;;;;;;20.98;27.46;96156.31;10386295;28;2345;-76
2021/12/21 09:18:24;;;;;;;;;;;;;;;20.98;27.56;96157.09;10409002;28;2363;-75
2021/12/21 09:23:27;;;;;;;;;;;;;;;20.96;27.90;96153.94;10400974;28;1954;-74
2021/12/21 09:28:28;;;;;;;;;;;;;;;20.99;27.80;96158.69;10393386;28;1810;-76
2021/12/21 09:33:29;;;;;;;;;;;;;;;20.97;27.81;96155.53;10367567;28;1823;-75
2021/12/21 09:38:29;;;;;;;;;;;;;;;20.97;28.03;96154.75;10402174;28;2375;-76
2021/12/21 09:43:30;;;;;;;;;;;;;;;21.03;27.83;96149.22;10394872;28;2392;-76
2021/12/21 09:48:30;;;;;;;;;;;;;;;21.02;27.81;96141.56;10402277;28;2006;-76
2021/12/21 09:53:31;;;;;;;;;;;;;;;21.03;27.83;96146.59;10401052;28;1709;-76
2021/12/21 09:58:31;;;;;;;;;;;;;;;21.04;27.86;96145.53;10404049;28;1933;-77
2021/12/21 10:03:32;;;;;;;;;;;;;;;21.01;27.72;96153.94;10406044;28;2096;-76
2021/12/21 10:08:33;;;;;;;;;;;;;;;21.03;27.82;96141.31;10406356;28;2738;-76
2021/12/21 10:13:36;;;;;;;;;;;;;;;21.03;27.89;96143.16;10409012;28;3086;-76
2021/12/21 10:18:43;;;;;;;;;;;;;;;21.03;27.81;96143.16;10404667;28;1963;-74
2021/12/21 10:23:45;;;;;;;;;;;;;;;21.02;27.87;96139.72;10397391;28;1889;-76
2021/12/21 10:28:46;;;;;;;;;;;;;;;21.01;27.74;96135.50;10394774;28;2868;-75
2021/12/21 10:33:47;;;;;;;;;;;;;;;20.99;27.77;96134.97;10404386;28;2287;-75
2021/12/21 10:38:50;;;;;;;;;;;;;;;21.00;27.82;96133.91;10411490;28;1914;-76
2021/12/21 10:43:56;;;;;;;;;;;;;;;21.03;27.78;96125.50;10397786;28;1901;-77
2021/12/21 10:49:23;;;;;;;;;;;;;;;21.04;27.76;96123.66;10417306;28;1830;-76
2021/12/21 10:54:32;;;;;;;;;;;;;;;21.04;27.71;96123.66;10414974;28;1873;-76
2021/12/21 10:59:33;;;;;;;;;;;;;;;21.07;27.73;96123.13;10415268;28;1906;-76
2021/12/21 11:04:37;;;;;;;;;;;;;;;21.10;27.83;96124.44;10402074;28;2214;-74
2021/12/21 11:09:37;;;;;;;;;;;;;;;21.10;27.67;96122.59;10380067;28;2204;-76
2021/12/21 11:14:38;;;;;;;;;;;;;;;21.11;27.78;96120.72;10390581;28;2288;-75
2021/12/21 11:19:39;;;;;;;;;;;;;;;21.15;27.98;96109.38;10383468;28;2158;-74
2021/12/21 11:24:40;;;;;;;;;;;;;;;21.16;27.63;96115.47;10402560;28;1921;-74
2021/12/21 11:29:41;;;;;;;;;;;;;;;21.15;27.97;96103.31;10400778;28;2007;-73
2021/12/21 11:34:58;;;;;;;;;;;;;;;21.15;28.03;96100.69;10399089;28;2297;-74
2021/12/21 11:39:58;;;;;;;;;;;;;;;21.14;27.96;96096.47;10384505;28;1885;-73
2021/12/21 11:45:02;;;;;;;;;;;;;;;21.14;28.22;96096.47;10379548;28;2244;-74
2021/12/21 11:50:06;;;;;;;;;;;;;;;21.11;28.11;96076.72;10403889;28;1879;-76
2021/12/21 11:55:07;;;;;;;;;;;;;;;21.16;28.21;96076.72;10400241;28;1945;-74
2021/12/21 12:00:12;;;;;;;;;;;;;;;21.17;28.08;96074.84;10369056;28;2176;-74
2021/12/21 12:05:18;;;;;;;;;;;;;;;21.19;28.21;96070.88;10409356;28;3366;-75
2021/12/21 12:10:19;;;;;;;;;;;;;;;21.19;28.24;96073.53;10386348;28;2804;-75
2021/12/21 12:15:19;;;;;;;;;;;;;;;21.18;28.23;96069.31;10385905;28;3267;-75
2021/12/21 12:20:25;;;;;;;;;;;;;;;21.18;28.04;96065.88;10394782;28;4515;-75
2021/12/21 12:25:26;;;;;;;;;;;;;;;21.17;28.23;96059.03;10391856;28;3334;-74
2021/12/21 12:30:27;;;;;;;;;;;;;;;21.17;27.97;96064.28;10394079;23;2837;-45
2021/12/21 12:35:31;;;;;;;;;;;;;;;21.20;28.02;96066.41;10381229;28;2050;-42
2021/12/21 12:40:33;;;;;;;;;;;;;;;21.19;28.02;96065.59;10384954;28;2124;-43
2021/12/21 12:45:54;;;;;;;;;;;;;;;21.22;27.87;96059.03;10400180;28;1895;-43
2021/12/21 12:50:55;;;;;;;;;;;;;;;21.22;27.95;96051.91;10386511;28;2089;-44
2021/12/21 12:55:58;;;;;;;;;;;;;;;21.25;27.81;96056.63;10399902;28;2201;-42
2021/12/21 13:01:00;;;;;;;;;;;;;;;21.29;27.88;96057.66;10402786;28;1963;-42
2021/12/21 13:06:06;;;;;;;;;;;;;;;21.36;27.85;96054.72;10389652;28;1838;-40
2021/12/21 13:11:07;;;;;;;;;;;;;;;21.37;28.30;96056.31;10388915;28;1938;-40
2021/12/21 13:16:11;;;;;;;;;;;;;;;21.37;28.37;96049.19;10401113;28;1764;-41
2021/12/21 13:21:20;;;;;;;;;;;;;;;21.37;28.23;96043.91;10393318;28;1791;-41
2021/12/21 13:26:23;;;;;;;;;;;;;;;21.35;28.60;96047.91;10390429;28;2000;-40
2021/12/21 13:31:23;;;;;;;;;;;;;;;21.32;28.62;96046.59;10404852;28;2268;-42
2021/12/21 13:36:31;;;;;;;;;;;;;;;21.36;28.73;96041.56;10384338;28;3193;-46
2021/12/21 13:41:32;;;;;;;;;;;;;;;21.35;28.53;96050.53;10395482;28;1854;-43
2021/12/21 13:46:33;;;;;;;;;;;;;;;21.31;28.52;96054.78;10386731;28;1807;-41
2021/12/21 13:51:34;;;;;;;;;;;;;;;21.30;28.34;96055.81;10394338;28;1967;-45
2021/12/21 13:56:34;;;;;;;;;;;;;;;21.28;28.46;96055.28;10395958;28;1975;-39
2021/12/21 14:01:36;;;;;;;;;;;;;;;21.28;28.41;96055.28;10391860;28;1855;-39
2021/12/21 14:06:36;;;;;;;;;;;;;;;21.26;28.36;96055.56;10389936;28;1934;-40
2021/12/21 14:11:38;;;;;;;;;;;;;;;21.20;28.79;96047.94;10411026;23;1905;-61
2021/12/21 14:16:41;;;;;;;;;;;;;;;21.20;28.50;96050.59;10396161;28;1909;-57
2021/12/21 14:21:42;;;;;;;;;;;;;;;21.21;28.47;96047.69;10407374;28;1827;-59
2021/12/21 14:26:52;;;;;;;;;;;;;;;21.18;28.50;96057.97;10397211;28;3303;-61
2021/12/21 14:32:01;;;;;;;;;;;;;;;21.18;28.13;96055.34;10395993;28;2215;-62
2021/12/21 14:37:01;;;;;;;;;;;;;;;21.18;28.33;96063.25;10413048;28;1991;-61
2021/12/21 14:42:06;;;;;;;;;;;;;;;21.16;28.37;96068.81;10388355;28;3271;-61
2021/12/21 14:47:06;;;;;;;;;;;;;;;21.19;28.21;96067.44;10395818;28;2742;-63
2021/12/21 14:52:22;;;;;;;;;;;;;;;21.18;28.02;96076.44;10394228;28;2353;-62
2021/12/21 14:57:29;;;;;;;;;;;;;;;21.17;28.27;96077.47;10395185;28;1984;-66
2021/12/21 15:07:31;;;;;;;;;;;;;;;21.14;28.21;96086.72;10389118;28;1827;-62
2021/12/21 15:12:31;;;;;;;;;;;;;;;21.15;27.91;96093.56;10396710;28;1906;-59
2021/12/21 15:17:31;;;;;;;;;;;;;;;21.12;28.01;96093.31;10394271;28;2626;-63
2021/12/21 15:22:32;;;;;;;;;;;;;;;21.10;27.91;96098.88;10393653;28;1849;-60
2021/12/21 15:27:32;;;;;;;;;;;;;;;21.09;28.00;96097.28;10396886;28;1833;-62
2021/12/21 15:32:33;;;;;;;;;;;;;;;21.11;27.79;96110.19;10397175;28;1873;-63
2021/12/21 15:37:34;;;;;;;;;;;;;;;21.10;27.64;96108.63;10383803;28;3405;-62
2021/12/21 15:42:36;;;;;;;;;;;;;;;21.10;27.81;96105.97;10389582;28;3075;-60
2021/12/21 15:47:37;;;;;;;;;;;;;;;21.05;27.95;96112.84;10397454;28;2647;-63
2021/12/21 15:52:37;;;;;;;;;;;;;;;21.08;27.78;96114.16;10397578;28;2369;-62
2021/12/21 15:57:38;;;;;;;;;;;;;;;21.08;27.85;96105.47;10392999;28;2030;-62
2021/12/21 16:02:38;;;;;;;;;;;;;;;21.06;27.70;96106.50;10399301;28;2516;-61
2021/12/21 16:07:39;;;;;;;;;;;;;;;21.06;27.70;96113.66;10399402;28;1817;-62
2021/12/21 16:12:39;;;;;;;;;;;;;;;21.08;27.57;96118.66;10386182;28;1937;-61
2021/12/21 16:17:40;;;;;;;;;;;;;;;21.06;27.65;96117.06;10394001;28;2185;-60
2021/12/21 16:22:40;;;;;;;;;;;;;;;21.09;27.53;96115.72;10394213;28;2223;-61
2021/12/21 16:27:41;;;;;;;;;;;;;;;21.08;27.70;96124.72;10397495;28;1881;-60
2021/12/21 16:32:41;;;;;;;;;;;;;;;21.06;27.63;96130.22;10399687;28;1937;-60
2021/12/21 16:37:42;;;;;;;;;;;;;;;21.05;27.74;96133.13;10399240;28;1965;-59
2021/12/21 16:42:42;;;;;;;;;;;;;;;21.04;27.51;96134.22;10400742;28;1972;-63
2021/12/21 16:47:43;;;;;;;;;;;;;;;21.03;27.52;96137.88;10399255;28;1842;-63
2021/12/21 16:52:43;;;;;;;;;;;;;;;21.03;27.69;96132.63;10400611;28;1815;-62
2021/12/21 16:57:44;;;;;;;;;;;;;;;21.05;27.49;96131.31;10399447;28;1973;-58
2021/12/21 17:02:45;;;;;;;;;;;;;;;21.08;27.66;96135.25;10383548;28;1881;-63
2021/12/21 17:07:45;;;;;;;;;;;;;;;21.08;27.58;96128.13;10383592;28;1888;-62
2021/12/21 17:12:46;;;;;;;;;;;;;;;21.12;27.62;96130.22;10399822;28;1838;-61
2021/12/21 17:17:46;;;;;;;;;;;;;;;21.11;27.60;96123.38;10398024;28;1981;-61
2021/12/21 17:22:47;;;;;;;;;;;;;;;21.17;27.54;96127.56;10397018;28;1862;-61
2021/12/21 17:27:47;;;;;;;;;;;;;;;21.21;27.76;96125.97;10407566;28;1919;-61
2021/12/21 17:32:47;;;;;;;;;;;;;;;21.19;27.90;96125.44;10410442;28;2143;-61
2021/12/21 17:37:51;;;;;;;;;;;;;;;21.23;27.84;96137.03;10402851;28;1973;-61
2021/12/21 17:42:51;;;;;;;;;;;;;;;21.19;27.98;96146.53;10400901;28;2277;-63
2021/12/21 17:47:52;;;;;;;;;;;;;;;21.19;27.82;96141.28;10410544;28;1968;-62
2021/12/21 17:52:52;;;;;;;;;;;;;;;21.18;27.75;96150.25;10398285;28;1949;-62
2021/12/21 17:57:52;;;;;;;;;;;;;;;21.18;27.68;96156.31;10401590;28;1946;-62
2021/12/21 18:02:53;;;;;;;;;;;;;;;21.17;27.75;96159.19;10398495;28;1906;-62
2021/12/21 18:07:54;;;;;;;;;;;;;;;21.17;27.63;96165.28;10410468;28;1803;-63
2021/12/21 18:12:56;;;;;;;;;;;;;;;21.20;27.59;96171.84;10413671;28;1816;-59
2021/12/21 18:17:57;;;;;;;;;;;;;;;21.16;27.53;96174.25;10402213;28;1907;-61
2021/12/21 18:22:58;;;;;;;;;;;;;;;21.16;27.89;96170.81;10401471;28;1754;-61
2021/12/21 18:27:58;;;;;;;;;;;;;;;21.20;27.42;96167.38;10405066;28;1771;-63
2021/12/21 18:32:59;;;;;;;;;;;;;;;21.14;27.69;96170.28;10393977;28;1759;-61
2021/12/21 18:37:59;;;;;;;;;;;;;;;21.18;27.41;96179.25;10404715;28;1914;-64
2021/12/21 18:43:01;;;;;;;;;;;;;;;21.17;27.36;96181.09;10396924;28;2298;-63
2021/12/21 18:48:01;;;;;;;;;;;;;;;21.15;27.29;96172.66;10403226;28;1947;-63
2021/12/21 18:53:02;;;;;;;;;;;;;;;21.16;27.32;96184.00;10388110;28;1925;-61
2021/12/21 18:58:02;;;;;;;;;;;;;;;21.16;27.30;96176.09;10384710;28;1902;-62
2021/12/21 19:08:04;;;;;;;;;;;;;;;21.16;27.21;96182.16;10393563;28;1893;-60
2021/12/21 19:13:04;;;;;;;;;;;;;;;21.16;27.53;96191.91;10397039;28;1826;-61
2021/12/21 19:18:05;;;;;;;;;;;;;;;21.16;27.29;96195.34;10401009;28;1918;-61
2021/12/21 19:23:06;;;;;;;;;;;;;;;21.14;27.16;96180.84;10405266;28;1745;-61
2021/12/21 19:28:06;;;;;;;;;;;;;;;21.13;27.23;96176.59;10406471;28;1973;-61
2021/12/21 19:33:08;;;;;;;;;;;;;;;21.18;27.25;96173.97;10412415;28;1766;-62
2021/12/21 19:38:08;;;;;;;;;;;;;;;21.18;27.05;96171.34;10405880;28;2097;-62
2021/12/21 19:43:09;;;;;;;;;;;;;;;21.18;27.11;96173.97;10391758;28;1911;-62
2021/12/21 19:48:09;;;;;;;;;;;;;;;21.17;27.12;96175.03;10398637;28;2148;-63
2021/12/21 19:53:10;;;;;;;;;;;;;;;21.16;27.09;96174.25;10382554;28;1928;-62
2021/12/21 19:58:10;;;;;;;;;;;;;;;21.17;27.14;96175.03;10397126;28;2217;-63
2021/12/21 20:03:10;;;;;;;;;;;;;;;21.13;27.30;96169.50;10399319;28;2116;-64
2021/12/21 20:08:11;;;;;;;;;;;;;;;21.18;26.86;96173.97;10398092;28;2272;-62
2021/12/21 20:13:12;;;;;;;;;;;;;;;21.19;26.94;96178.19;10395837;28;2198;-63
2021/12/21 20:18:13;;;;;;;;;;;;;;;21.20;26.91;96182.41;10395864;28;1902;-64
2021/12/21 20:23:14;;;;;;;;;;;;;;;21.17;27.17;96185.56;10384971;28;1854;-63
2021/12/21 20:28:15;;;;;;;;;;;;;;;21.17;26.98;96196.91;10402209;28;1869;-62
2021/12/21 20:33:15;;;;;;;;;;;;;;;21.16;27.08;96211.16;10397167;28;1968;-61
2021/12/21 20:38:16;;;;;;;;;;;;;;;21.15;26.85;96221.94;10399414;22;2169;-72
2021/12/21 20:43:17;;;;;;;;;;;;;;;21.16;26.90;96215.63;10393712;28;2162;-72
2021/12/21 20:48:18;;;;;;;;;;;;;;;21.15;27.02;96212.19;10407539;28;2140;-73
2021/12/21 20:53:19;;;;;;;;;;;;;;;21.15;26.98;96206.13;10389437;28;2349;-73
2021/12/21 20:58:19;;;;;;;;;;;;;;;21.16;27.05;96205.09;10390734;28;1945;-74
2021/12/21 21:03:20;;;;;;;;;;;;;;;21.15;26.90;96214.84;10393150;28;2273;-73
2021/12/21 21:08:20;;;;;;;;;;;;;;;21.16;26.97;96223.53;10378082;28;3152;-71
2021/12/21 21:13:21;;;;;;;;;;;;;;;21.19;27.18;96215.88;10403651;28;2191;-72
2021/12/21 21:18:21;;;;;;;;;;;;;;;21.16;26.97;96215.63;10402549;28;1973;-73
2021/12/21 21:23:22;;;;;;;;;;;;;;;21.18;26.76;96218.78;10402245;28;2344;-74
2021/12/21 21:28:22;;;;;;;;;;;;;;;21.19;26.79;96210.59;10385580;28;1914;-72
2021/12/21 21:33:23;;;;;;;;;;;;;;;21.15;27.00;96199.03;10400638;28;2235;-74
2021/12/21 21:38:23;;;;;;;;;;;;;;;21.19;26.66;96199.25;10408123;28;2388;-72
2021/12/21 21:43:24;;;;;;;;;;;;;;;21.16;26.92;96205.88;10393371;28;1762;-73
2021/12/21 21:48:27;;;;;;;;;;;;;;;21.18;26.71;96205.59;10399251;28;2957;-73
2021/12/21 21:58:34;;;;;;;;;;;;;;;21.12;26.96;96222.50;10411972;28;2203;-74
2021/12/21 22:03:34;;;;;;;;;;;;;;;21.14;27.48;96223.00;10380321;28;2158;-73
2021/12/21 22:08:34;;;;;;;;;;;;;;;21.19;27.42;96231.69;10375963;28;3302;-73
2021/12/21 22:13:35;;;;;;;;;;;;;;;21.17;27.76;96235.66;10384677;28;2584;-72
2021/12/21 22:18:36;;;;;;;;;;;;;;;21.19;27.91;96246.72;10391116;28;1969;-73
2021/12/21 22:23:37;;;;;;;;;;;;;;;21.19;28.02;96236.97;10380992;28;2403;-72
2021/12/21 22:28:38;;;;;;;;;;;;;;;21.19;28.18;96244.09;10382698;28;2580;-73
2021/12/21 22:33:39;;;;;;;;;;;;;;;21.16;28.31;96247.25;10381319;28;1896;-73
2021/12/21 22:38:42;;;;;;;;;;;;;;;21.18;28.19;96253.88;10378723;28;1934;-72
2021/12/21 22:43:42;;;;;;;;;;;;;;;21.16;28.13;96258.59;10394995;28;1880;-73
2021/12/21 22:48:43;;;;;;;;;;;;;;;21.16;28.16;96266.53;10385099;28;1585;-73
2021/12/21 22:53:44;;;;;;;;;;;;;;;21.17;28.46;96259.38;10410080;28;1580;-72
2021/12/21 22:58:44;;;;;;;;;;;;;;;21.17;28.24;96269.91;10388740;28;1910;-72
2021/12/21 23:03:44;;;;;;;;;;;;;;;21.16;28.33;96276.25;10381974;28;2369;-72
2021/12/21 23:08:45;;;;;;;;;;;;;;;21.15;28.28;96283.38;10390390;28;1766;-72
2021/12/21 23:13:47;;;;;;;;;;;;;;;21.14;28.47;96283.66;10389923;28;1869;-73
2021/12/21 23:18:47;;;;;;;;;;;;;;;21.12;28.32;96272.56;10403457;28;1962;-73
2021/12/21 23:23:49;;;;;;;;;;;;;;;21.13;28.14;96261.75;10403141;28;2457;-73
2021/12/21 23:28:49;;;;;;;;;;;;;;;21.09;28.23;96268.63;10399127;28;1847;-73
2021/12/21 23:33:50;;;;;;;;;;;;;;;21.09;28.05;96268.63;10401271;28;1744;-74
2021/12/21 23:38:50;;;;;;;;;;;;;;;21.12;28.15;96254.13;10404822;28;1926;-73
2021/12/21 23:43:51;;;;;;;;;;;;;;;21.12;28.04;96265.47;10407848;28;1794;-73
2021/12/21 23:48:51;;;;;;;;;;;;;;;21.08;28.09;96259.91;10404707;28;1868;-73
2021/12/21 23:53:52;;;;;;;;;;;;;;;21.08;28.00;96271.53;10411225;28;1817;-74
2021/12/21 23:58:52;;;;;;;;;;;;;;;21.11;27.74;96276.25;10391800;28;1971;-74
